sensor_id;sensor_type;location;lat;lon;timestamp;temperature;humidity
53926;DHT22;39836;52.754;6.866;2023-02-21T00:00:24;8.80;82.30
53926;DHT22;39836;52.754;6.866;2023-02-21T00:03:08;8.80;82.30
53926;DHT22;39836;52.754;6.866;2023-02-21T00:05:53;8.90;82.30
53926;DHT22;39836;52.754;6.866;2023-02-21T00:08:37;8.80;82.30
53926;DHT22;39836;52.754;6.866;2023-02-21T00:11:21;8.90;82.30
53926;DHT22;39836;52.754;6.866;2023-02-21T00:14:05;8.90;82.20
53926;DHT22;39836;52.754;6.866;2023-02-21T00:16:49;8.90;82.20
53926;DHT22;39836;52.754;6.866;2023-02-21T00:19:34;8.90;82.20
53926;DHT22;39836;52.754;6.866;2023-02-21T00:22:18;8.90;82.20
53926;DHT22;39836;52.754;6.866;2023-02-21T00:25:02;8.90;82.20
53926;DHT22;39836;52.754;6.866;2023-02-21T00:27:46;8.90;82.20
53926;DHT22;39836;52.754;6.866;2023-02-21T00:30:30;8.90;82.20
53926;DHT22;39836;52.754;6.866;2023-02-21T00:33:14;8.90;82.30
53926;DHT22;39836;52.754;6.866;2023-02-21T00:35:58;8.90;82.30
53926;DHT22;39836;52.754;6.866;2023-02-21T00:38:42;8.90;82.30
53926;DHT22;39836;52.754;6.866;2023-02-21T00:41:27;8.90;82.20
53926;DHT22;39836;52.754;6.866;2023-02-21T00:44:11;9.00;82.30
53926;DHT22;39836;52.754;6.866;2023-02-21T00:46:55;8.90;82.30
53926;DHT22;39836;52.754;6.866;2023-02-21T00:49:39;8.90;82.20
53926;DHT22;39836;52.754;6.866;2023-02-21T00:52:23;8.90;82.30
53926;DHT22;39836;52.754;6.866;2023-02-21T00:55:07;8.90;82.30
53926;DHT22;39836;52.754;6.866;2023-02-21T00:57:51;9.00;82.40
53926;DHT22;39836;52.754;6.866;2023-02-21T01:00:35;9.00;82.30
53926;DHT22;39836;52.754;6.866;2023-02-21T01:03:20;9.00;82.30
53926;DHT22;39836;52.754;6.866;2023-02-21T01:06:08;9.00;82.30
53926;DHT22;39836;52.754;6.866;2023-02-21T01:08:53;9.00;82.40
53926;DHT22;39836;52.754;6.866;2023-02-21T01:11:37;8.90;82.40
53926;DHT22;39836;52.754;6.866;2023-02-21T01:14:21;9.00;82.30
53926;DHT22;39836;52.754;6.866;2023-02-21T01:17:06;9.00;82.40
53926;DHT22;39836;52.754;6.866;2023-02-21T01:19:50;9.00;82.40
53926;DHT22;39836;52.754;6.866;2023-02-21T01:22:34;9.00;82.40
53926;DHT22;39836;52.754;6.866;2023-02-21T01:25:18;9.00;82.50
53926;DHT22;39836;52.754;6.866;2023-02-21T01:28:03;9.00;82.40
53926;DHT22;39836;52.754;6.866;2023-02-21T01:30:47;8.90;82.40
53926;DHT22;39836;52.754;6.866;2023-02-21T01:33:39;8.90;82.40
53926;DHT22;39836;52.754;6.866;2023-02-21T01:36:23;8.90;82.40
53926;DHT22;39836;52.754;6.866;2023-02-21T01:39:09;8.90;82.50
53926;DHT22;39836;52.754;6.866;2023-02-21T01:41:54;8.90;82.50
53926;DHT22;39836;52.754;6.866;2023-02-21T01:44:46;8.90;82.50
53926;DHT22;39836;52.754;6.866;2023-02-21T01:47:31;9.00;82.50
53926;DHT22;39836;52.754;6.866;2023-02-21T01:50:20;9.00;82.50
53926;DHT22;39836;52.754;6.866;2023-02-21T01:53:31;8.90;82.40
53926;DHT22;39836;52.754;6.866;2023-02-21T01:56:15;9.00;82.40
53926;DHT22;39836;52.754;6.866;2023-02-21T01:59:00;9.00;82.40
53926;DHT22;39836;52.754;6.866;2023-02-21T02:01:57;9.10;82.40
53926;DHT22;39836;52.754;6.866;2023-02-21T02:04:44;9.10;82.40
53926;DHT22;39836;52.754;6.866;2023-02-21T02:07:29;9.00;82.40
53926;DHT22;39836;52.754;6.866;2023-02-21T02:10:15;9.00;82.50
53926;DHT22;39836;52.754;6.866;2023-02-21T02:16:01;9.10;82.50
53926;DHT22;39836;52.754;6.866;2023-02-21T02:24:17;9.10;82.40
53926;DHT22;39836;52.754;6.866;2023-02-21T02:27:32;9.10;82.40
53926;DHT22;39836;52.754;6.866;2023-02-21T02:38:37;9.00;82.40
53926;DHT22;39836;52.754;6.866;2023-02-21T02:41:59;9.00;82.40
53926;DHT22;39836;52.754;6.866;2023-02-21T02:44:39;9.00;82.50
53926;DHT22;39836;52.754;6.866;2023-02-21T02:47:09;9.00;82.50
53926;DHT22;39836;52.754;6.866;2023-02-21T02:49:37;9.00;82.50
53926;DHT22;39836;52.754;6.866;2023-02-21T02:52:06;9.00;82.50
53926;DHT22;39836;52.754;6.866;2023-02-21T02:54:33;9.00;82.60
53926;DHT22;39836;52.754;6.866;2023-02-21T02:56:59;9.00;82.50
53926;DHT22;39836;52.754;6.866;2023-02-21T02:59:29;9.00;82.50
53926;DHT22;39836;52.754;6.866;2023-02-21T03:01:58;9.00;82.50
53926;DHT22;39836;52.754;6.866;2023-02-21T03:07:58;9.10;82.50
53926;DHT22;39836;52.754;6.866;2023-02-21T03:10:45;9.10;82.50
53926;DHT22;39836;52.754;6.866;2023-02-21T03:13:39;9.10;82.50
53926;DHT22;39836;52.754;6.866;2023-02-21T03:19:34;9.10;82.40
53926;DHT22;39836;52.754;6.866;2023-02-21T03:22:09;9.10;82.40
53926;DHT22;39836;52.754;6.866;2023-02-21T03:24:37;9.20;82.40
53926;DHT22;39836;52.754;6.866;2023-02-21T03:27:05;9.10;82.30
53926;DHT22;39836;52.754;6.866;2023-02-21T03:29:33;9.20;82.30
53926;DHT22;39836;52.754;6.866;2023-02-21T03:32:20;9.20;82.30
53926;DHT22;39836;52.754;6.866;2023-02-21T03:34:46;9.20;82.30
53926;DHT22;39836;52.754;6.866;2023-02-21T03:37:27;9.20;82.30
53926;DHT22;39836;52.754;6.866;2023-02-21T03:39:54;9.20;82.30
53926;DHT22;39836;52.754;6.866;2023-02-21T03:42:20;9.20;82.30
53926;DHT22;39836;52.754;6.866;2023-02-21T03:44:46;9.20;82.20
53926;DHT22;39836;52.754;6.866;2023-02-21T03:47:11;9.20;82.20
53926;DHT22;39836;52.754;6.866;2023-02-21T03:49:37;9.20;82.20
53926;DHT22;39836;52.754;6.866;2023-02-21T03:52:03;9.30;82.20
53926;DHT22;39836;52.754;6.866;2023-02-21T03:54:29;9.30;82.10
53926;DHT22;39836;52.754;6.866;2023-02-21T03:56:54;9.30;82.10
53926;DHT22;39836;52.754;6.866;2023-02-21T03:59:20;9.30;82.10
53926;DHT22;39836;52.754;6.866;2023-02-21T04:01:46;9.20;82.10
53926;DHT22;39836;52.754;6.866;2023-02-21T04:04:11;9.30;82.10
53926;DHT22;39836;52.754;6.866;2023-02-21T04:06:37;9.30;82.10
53926;DHT22;39836;52.754;6.866;2023-02-21T04:09:03;9.30;82.10
53926;DHT22;39836;52.754;6.866;2023-02-21T04:11:30;9.30;82.00
53926;DHT22;39836;52.754;6.866;2023-02-21T04:13:55;9.30;82.00
53926;DHT22;39836;52.754;6.866;2023-02-21T04:16:21;9.30;82.10
53926;DHT22;39836;52.754;6.866;2023-02-21T04:18:47;9.30;82.10
53926;DHT22;39836;52.754;6.866;2023-02-21T04:21:16;9.30;82.10
53926;DHT22;39836;52.754;6.866;2023-02-21T04:23:43;9.30;82.10
53926;DHT22;39836;52.754;6.866;2023-02-21T04:26:08;9.30;82.10
53926;DHT22;39836;52.754;6.866;2023-02-21T04:28:34;9.30;82.10
53926;DHT22;39836;52.754;6.866;2023-02-21T04:31:00;9.30;82.10
53926;DHT22;39836;52.754;6.866;2023-02-21T04:33:25;9.30;82.10
53926;DHT22;39836;52.754;6.866;2023-02-21T04:35:51;9.30;82.10
53926;DHT22;39836;52.754;6.866;2023-02-21T04:38:17;9.20;82.10
53926;DHT22;39836;52.754;6.866;2023-02-21T04:40:42;9.20;82.10
53926;DHT22;39836;52.754;6.866;2023-02-21T04:43:08;9.20;82.10
53926;DHT22;39836;52.754;6.866;2023-02-21T04:45:34;9.20;82.10
53926;DHT22;39836;52.754;6.866;2023-02-21T04:47:59;9.20;82.10
53926;DHT22;39836;52.754;6.866;2023-02-21T04:50:25;9.20;82.10
53926;DHT22;39836;52.754;6.866;2023-02-21T04:52:53;9.20;82.10
53926;DHT22;39836;52.754;6.866;2023-02-21T04:55:18;9.20;82.10
53926;DHT22;39836;52.754;6.866;2023-02-21T04:57:44;9.20;82.10
53926;DHT22;39836;52.754;6.866;2023-02-21T05:00:10;9.20;82.10
53926;DHT22;39836;52.754;6.866;2023-02-21T05:02:36;9.20;82.10
53926;DHT22;39836;52.754;6.866;2023-02-21T05:05:02;9.20;82.10
53926;DHT22;39836;52.754;6.866;2023-02-21T05:07:27;9.20;82.10
53926;DHT22;39836;52.754;6.866;2023-02-21T05:09:53;9.20;82.10
53926;DHT22;39836;52.754;6.866;2023-02-21T05:12:19;9.20;82.20
53926;DHT22;39836;52.754;6.866;2023-02-21T05:14:44;9.10;82.20
53926;DHT22;39836;52.754;6.866;2023-02-21T05:17:10;9.20;82.20
53926;DHT22;39836;52.754;6.866;2023-02-21T05:19:36;9.20;82.20
53926;DHT22;39836;52.754;6.866;2023-02-21T05:22:02;9.10;82.20
53926;DHT22;39836;52.754;6.866;2023-02-21T05:24:29;9.20;82.20
53926;DHT22;39836;52.754;6.866;2023-02-21T05:26:56;9.20;82.20
53926;DHT22;39836;52.754;6.866;2023-02-21T05:29:22;9.20;82.20
53926;DHT22;39836;52.754;6.866;2023-02-21T05:31:48;9.10;82.20
53926;DHT22;39836;52.754;6.866;2023-02-21T05:34:15;9.10;82.20
53926;DHT22;39836;52.754;6.866;2023-02-21T05:36:41;9.20;82.30
53926;DHT22;39836;52.754;6.866;2023-02-21T05:39:08;9.20;82.30
53926;DHT22;39836;52.754;6.866;2023-02-21T05:41:34;9.20;82.30
53926;DHT22;39836;52.754;6.866;2023-02-21T05:44:00;9.10;82.30
53926;DHT22;39836;52.754;6.866;2023-02-21T05:46:32;9.10;82.30
53926;DHT22;39836;52.754;6.866;2023-02-21T05:48:58;9.10;82.30
53926;DHT22;39836;52.754;6.866;2023-02-21T05:51:25;9.10;82.30
53926;DHT22;39836;52.754;6.866;2023-02-21T05:53:51;9.10;82.30
53926;DHT22;39836;52.754;6.866;2023-02-21T05:56:17;9.10;82.40
53926;DHT22;39836;52.754;6.866;2023-02-21T05:58:43;9.20;82.40
53926;DHT22;39836;52.754;6.866;2023-02-21T06:01:09;9.10;82.30
53926;DHT22;39836;52.754;6.866;2023-02-21T06:03:34;9.00;82.30
53926;DHT22;39836;52.754;6.866;2023-02-21T06:06:00;9.00;82.30
53926;DHT22;39836;52.754;6.866;2023-02-21T06:08:26;9.00;82.40
53926;DHT22;39836;52.754;6.866;2023-02-21T06:10:52;9.00;82.40
53926;DHT22;39836;52.754;6.866;2023-02-21T06:13:18;9.00;82.40
53926;DHT22;39836;52.754;6.866;2023-02-21T06:15:43;9.00;82.40
53926;DHT22;39836;52.754;6.866;2023-02-21T06:18:12;9.00;82.50
53926;DHT22;39836;52.754;6.866;2023-02-21T06:20:38;9.00;82.60
53926;DHT22;39836;52.754;6.866;2023-02-21T06:23:04;9.00;82.60
53926;DHT22;39836;52.754;6.866;2023-02-21T06:25:29;9.00;82.50
53926;DHT22;39836;52.754;6.866;2023-02-21T06:27:55;9.00;82.50
53926;DHT22;39836;52.754;6.866;2023-02-21T06:30:20;9.00;82.50
53926;DHT22;39836;52.754;6.866;2023-02-21T06:32:46;9.00;82.50
53926;DHT22;39836;52.754;6.866;2023-02-21T06:35:12;9.00;82.60
53926;DHT22;39836;52.754;6.866;2023-02-21T06:37:38;9.00;82.60
53926;DHT22;39836;52.754;6.866;2023-02-21T06:40:03;9.00;82.60
53926;DHT22;39836;52.754;6.866;2023-02-21T06:42:29;9.00;82.60
53926;DHT22;39836;52.754;6.866;2023-02-21T06:44:55;9.00;82.60
53926;DHT22;39836;52.754;6.866;2023-02-21T06:47:21;8.60;82.50
53926;DHT22;39836;52.754;6.866;2023-02-21T06:49:46;9.00;82.60
53926;DHT22;39836;52.754;6.866;2023-02-21T06:52:13;9.00;82.60
53926;DHT22;39836;52.754;6.866;2023-02-21T06:54:39;9.00;82.60
53926;DHT22;39836;52.754;6.866;2023-02-21T06:57:04;9.00;82.60
53926;DHT22;39836;52.754;6.866;2023-02-21T06:59:30;9.00;82.60
53926;DHT22;39836;52.754;6.866;2023-02-21T07:01:56;9.00;82.60
53926;DHT22;39836;52.754;6.866;2023-02-21T07:04:23;9.00;82.60
53926;DHT22;39836;52.754;6.866;2023-02-21T07:06:49;9.00;82.60
53926;DHT22;39836;52.754;6.866;2023-02-21T07:09:14;9.00;82.60
53926;DHT22;39836;52.754;6.866;2023-02-21T07:11:40;9.00;82.60
53926;DHT22;39836;52.754;6.866;2023-02-21T07:14:06;9.00;82.60
53926;DHT22;39836;52.754;6.866;2023-02-21T07:16:32;9.00;82.70
53926;DHT22;39836;52.754;6.866;2023-02-21T07:18:57;9.00;82.70
53926;DHT22;39836;52.754;6.866;2023-02-21T07:21:25;9.00;82.70
53926;DHT22;39836;52.754;6.866;2023-02-21T07:23:50;9.00;82.80
53926;DHT22;39836;52.754;6.866;2023-02-21T07:26:16;9.00;82.80
53926;DHT22;39836;52.754;6.866;2023-02-21T07:28:42;9.00;82.80
53926;DHT22;39836;52.754;6.866;2023-02-21T07:31:08;9.00;82.80
53926;DHT22;39836;52.754;6.866;2023-02-21T07:33:35;9.00;82.90
53926;DHT22;39836;52.754;6.866;2023-02-21T07:36:01;9.00;82.80
53926;DHT22;39836;52.754;6.866;2023-02-21T07:38:29;9.00;82.80
53926;DHT22;39836;52.754;6.866;2023-02-21T07:40:56;9.00;82.90
53926;DHT22;39836;52.754;6.866;2023-02-21T07:43:24;9.00;82.90
53926;DHT22;39836;52.754;6.866;2023-02-21T07:45:50;9.00;82.90
53926;DHT22;39836;52.754;6.866;2023-02-21T07:48:15;9.00;82.90
53926;DHT22;39836;52.754;6.866;2023-02-21T07:50:41;9.00;82.90
53926;DHT22;39836;52.754;6.866;2023-02-21T07:53:07;9.00;83.00
53926;DHT22;39836;52.754;6.866;2023-02-21T07:55:33;9.00;83.00
53926;DHT22;39836;52.754;6.866;2023-02-21T07:57:59;9.00;83.00
53926;DHT22;39836;52.754;6.866;2023-02-21T08:00:25;9.00;82.90
53926;DHT22;39836;52.754;6.866;2023-02-21T08:02:51;8.90;82.90
53926;DHT22;39836;52.754;6.866;2023-02-21T08:05:18;9.00;83.00
53926;DHT22;39836;52.754;6.866;2023-02-21T08:07:44;9.00;83.00
53926;DHT22;39836;52.754;6.866;2023-02-21T08:10:12;9.00;83.00
53926;DHT22;39836;52.754;6.866;2023-02-21T08:12:38;9.00;83.00
53926;DHT22;39836;52.754;6.866;2023-02-21T08:15:04;9.00;83.00
53926;DHT22;39836;52.754;6.866;2023-02-21T08:17:31;9.00;83.10
53926;DHT22;39836;52.754;6.866;2023-02-21T08:19:56;9.00;83.10
53926;DHT22;39836;52.754;6.866;2023-02-21T08:22:22;9.00;83.10
53926;DHT22;39836;52.754;6.866;2023-02-21T08:24:49;9.00;83.10
53926;DHT22;39836;52.754;6.866;2023-02-21T08:27:15;9.00;83.10
53926;DHT22;39836;52.754;6.866;2023-02-21T08:29:41;9.00;83.20
53926;DHT22;39836;52.754;6.866;2023-02-21T08:32:07;9.10;83.20
53926;DHT22;39836;52.754;6.866;2023-02-21T08:34:33;9.00;83.20
53926;DHT22;39836;52.754;6.866;2023-02-21T08:36:59;9.00;83.20
53926;DHT22;39836;52.754;6.866;2023-02-21T08:39:25;9.10;83.20
53926;DHT22;39836;52.754;6.866;2023-02-21T08:41:54;9.10;83.20
53926;DHT22;39836;52.754;6.866;2023-02-21T08:44:20;9.10;83.20
53926;DHT22;39836;52.754;6.866;2023-02-21T08:46:46;9.10;83.20
53926;DHT22;39836;52.754;6.866;2023-02-21T08:49:12;9.10;83.20
53926;DHT22;39836;52.754;6.866;2023-02-21T08:51:38;9.20;83.20
53926;DHT22;39836;52.754;6.866;2023-02-21T08:54:05;9.20;83.20
53926;DHT22;39836;52.754;6.866;2023-02-21T08:56:32;9.20;83.20
53926;DHT22;39836;52.754;6.866;2023-02-21T08:58:58;9.10;83.20
53926;DHT22;39836;52.754;6.866;2023-02-21T09:01:30;9.20;83.20
53926;DHT22;39836;52.754;6.866;2023-02-21T09:03:56;9.20;83.20
53926;DHT22;39836;52.754;6.866;2023-02-21T09:06:22;9.20;83.10
53926;DHT22;39836;52.754;6.866;2023-02-21T09:08:48;9.20;83.10
53926;DHT22;39836;52.754;6.866;2023-02-21T09:11:13;9.20;83.10
53926;DHT22;39836;52.754;6.866;2023-02-21T09:13:39;9.20;83.10
53926;DHT22;39836;52.754;6.866;2023-02-21T09:16:06;9.30;83.10
53926;DHT22;39836;52.754;6.866;2023-02-21T09:18:32;9.30;83.00
53926;DHT22;39836;52.754;6.866;2023-02-21T09:20:57;9.30;83.00
53926;DHT22;39836;52.754;6.866;2023-02-21T09:23:28;9.30;83.00
53926;DHT22;39836;52.754;6.866;2023-02-21T09:25:54;9.20;83.00
53926;DHT22;39836;52.754;6.866;2023-02-21T09:28:21;9.30;83.00
53926;DHT22;39836;52.754;6.866;2023-02-21T09:30:47;9.30;83.00
53926;DHT22;39836;52.754;6.866;2023-02-21T09:33:13;9.30;83.00
53926;DHT22;39836;52.754;6.866;2023-02-21T09:35:40;9.30;83.00
53926;DHT22;39836;52.754;6.866;2023-02-21T09:38:06;9.40;83.00
53926;DHT22;39836;52.754;6.866;2023-02-21T09:40:40;9.40;83.00
53926;DHT22;39836;52.754;6.866;2023-02-21T09:43:18;9.40;83.00
53926;DHT22;39836;52.754;6.866;2023-02-21T09:45:45;9.40;83.00
53926;DHT22;39836;52.754;6.866;2023-02-21T09:48:17;9.40;82.90
53926;DHT22;39836;52.754;6.866;2023-02-21T09:50:50;9.40;82.90
53926;DHT22;39836;52.754;6.866;2023-02-21T09:53:30;9.40;82.90
53926;DHT22;39836;52.754;6.866;2023-02-21T09:55:59;9.50;82.90
53926;DHT22;39836;52.754;6.866;2023-02-21T09:58:26;9.40;83.00
53926;DHT22;39836;52.754;6.866;2023-02-21T10:00:57;9.50;82.90
53926;DHT22;39836;52.754;6.866;2023-02-21T10:06:58;9.50;82.90
53926;DHT22;39836;52.754;6.866;2023-02-21T10:09:23;9.50;82.90
53926;DHT22;39836;52.754;6.866;2023-02-21T10:17:21;9.60;82.80
53926;DHT22;39836;52.754;6.866;2023-02-21T10:19:56;9.70;83.00
53926;DHT22;39836;52.754;6.866;2023-02-21T10:22:30;9.70;82.90
53926;DHT22;39836;52.754;6.866;2023-02-21T10:24:57;9.70;82.80
53926;DHT22;39836;52.754;6.866;2023-02-21T10:27:29;9.70;82.80
53926;DHT22;39836;52.754;6.866;2023-02-21T10:30:00;9.80;82.80
53926;DHT22;39836;52.754;6.866;2023-02-21T10:32:27;9.80;82.80
53926;DHT22;39836;52.754;6.866;2023-02-21T10:34:53;9.80;82.80
53926;DHT22;39836;52.754;6.866;2023-02-21T10:40:01;9.80;82.80
53926;DHT22;39836;52.754;6.866;2023-02-21T10:42:38;9.80;82.70
53926;DHT22;39836;52.754;6.866;2023-02-21T10:45:07;9.80;82.70
53926;DHT22;39836;52.754;6.866;2023-02-21T10:47:47;9.80;82.70
53926;DHT22;39836;52.754;6.866;2023-02-21T10:50:15;9.80;82.60
53926;DHT22;39836;52.754;6.866;2023-02-21T10:52:59;9.80;82.70
53926;DHT22;39836;52.754;6.866;2023-02-21T10:55:25;9.80;82.60
53926;DHT22;39836;52.754;6.866;2023-02-21T10:57:54;9.90;82.70
53926;DHT22;39836;52.754;6.866;2023-02-21T11:00:34;9.80;82.70
53926;DHT22;39836;52.754;6.866;2023-02-21T11:03:26;9.80;82.70
53926;DHT22;39836;52.754;6.866;2023-02-21T11:05:56;9.80;82.70
53926;DHT22;39836;52.754;6.866;2023-02-21T11:08:43;9.80;82.70
53926;DHT22;39836;52.754;6.866;2023-02-21T11:11:09;9.80;82.70
53926;DHT22;39836;52.754;6.866;2023-02-21T11:13:35;9.80;82.70
53926;DHT22;39836;52.754;6.866;2023-02-21T11:16:19;9.80;82.70
53926;DHT22;39836;52.754;6.866;2023-02-21T11:18:54;9.80;82.70
53926;DHT22;39836;52.754;6.866;2023-02-21T11:21:28;9.80;82.70
53926;DHT22;39836;52.754;6.866;2023-02-21T11:23:56;9.90;82.70
53926;DHT22;39836;52.754;6.866;2023-02-21T11:26:24;9.90;82.70
53926;DHT22;39836;52.754;6.866;2023-02-21T11:28:52;9.90;82.60
53926;DHT22;39836;52.754;6.866;2023-02-21T11:34:01;10.00;82.60
53926;DHT22;39836;52.754;6.866;2023-02-21T11:36:34;10.00;82.30
53926;DHT22;39836;52.754;6.866;2023-02-21T11:41:31;10.10;82.40
53926;DHT22;39836;52.754;6.866;2023-02-21T11:43:59;10.20;82.40
53926;DHT22;39836;52.754;6.866;2023-02-21T11:46:43;10.20;82.30
53926;DHT22;39836;52.754;6.866;2023-02-21T11:52:30;10.30;82.40
53926;DHT22;39836;52.754;6.866;2023-02-21T11:54:35;10.30;82.20
53926;DHT22;39836;52.754;6.866;2023-02-21T11:57:36;10.30;82.10
53926;DHT22;39836;52.754;6.866;2023-02-21T12:08:19;10.40;81.90
53926;DHT22;39836;52.754;6.866;2023-02-21T12:13:57;10.30;81.80
53926;DHT22;39836;52.754;6.866;2023-02-21T12:25:51;10.30;81.70
53926;DHT22;39836;52.754;6.866;2023-02-21T12:31:15;10.30;81.90
53926;DHT22;39836;52.754;6.866;2023-02-21T12:33:54;10.20;81.80
53926;DHT22;39836;52.754;6.866;2023-02-21T12:45:06;10.20;82.00
53926;DHT22;39836;52.754;6.866;2023-02-21T12:50:39;10.10;82.00
53926;DHT22;39836;52.754;6.866;2023-02-21T12:53:19;10.10;82.10
53926;DHT22;39836;52.754;6.866;2023-02-21T12:56:11;10.10;82.20
53926;DHT22;39836;52.754;6.866;2023-02-21T12:58:46;10.00;82.10
53926;DHT22;39836;52.754;6.866;2023-02-21T13:01:27;10.00;82.20
53926;DHT22;39836;52.754;6.866;2023-02-21T13:09:34;10.00;82.60
53926;DHT22;39836;52.754;6.866;2023-02-21T13:12:20;10.00;82.60
53926;DHT22;39836;52.754;6.866;2023-02-21T13:14:53;9.90;82.50
53926;DHT22;39836;52.754;6.866;2023-02-21T13:17:21;9.90;82.70
53926;DHT22;39836;52.754;6.866;2023-02-21T13:22:25;9.80;82.80
53926;DHT22;39836;52.754;6.866;2023-02-21T13:32:54;9.90;82.80
53926;DHT22;39836;52.754;6.866;2023-02-21T13:35:30;9.80;82.80
53926;DHT22;39836;52.754;6.866;2023-02-21T13:37:58;9.80;82.90
53926;DHT22;39836;52.754;6.866;2023-02-21T13:40:35;9.80;83.10
53926;DHT22;39836;52.754;6.866;2023-02-21T13:43:14;9.90;83.10
53926;DHT22;39836;52.754;6.866;2023-02-21T13:45:41;9.90;83.10
53926;DHT22;39836;52.754;6.866;2023-02-21T13:55:36;9.90;83.10
53926;DHT22;39836;52.754;6.866;2023-02-21T14:08:22;10.00;83.00
53926;DHT22;39836;52.754;6.866;2023-02-21T14:10:50;10.00;83.00
53926;DHT22;39836;52.754;6.866;2023-02-21T14:13:23;9.90;82.90
53926;DHT22;39836;52.754;6.866;2023-02-21T14:16:07;9.90;82.90
53926;DHT22;39836;52.754;6.866;2023-02-21T14:26:54;9.80;83.10
53926;DHT22;39836;52.754;6.866;2023-02-21T14:29:38;9.80;83.10
53926;DHT22;39836;52.754;6.866;2023-02-21T14:32:21;9.80;83.10
53926;DHT22;39836;52.754;6.866;2023-02-21T14:39:44;9.70;83.20
53926;DHT22;39836;52.754;6.866;2023-02-21T14:42:28;9.70;83.20
53926;DHT22;39836;52.754;6.866;2023-02-21T14:47:50;9.70;83.20
53926;DHT22;39836;52.754;6.866;2023-02-21T15:07:27;9.70;83.20
53926;DHT22;39836;52.754;6.866;2023-02-21T15:10:20;9.70;83.30
53926;DHT22;39836;52.754;6.866;2023-02-21T15:12:52;9.70;83.30
53926;DHT22;39836;52.754;6.866;2023-02-21T15:15:23;9.70;83.30
53926;DHT22;39836;52.754;6.866;2023-02-21T15:18:11;9.70;83.30
53926;DHT22;39836;52.754;6.866;2023-02-21T15:20:39;9.70;83.20
53926;DHT22;39836;52.754;6.866;2023-02-21T15:25:35;9.60;83.10
53926;DHT22;39836;52.754;6.866;2023-02-21T15:28:02;9.60;83.10
53926;DHT22;39836;52.754;6.866;2023-02-21T15:30:40;9.60;83.20
53926;DHT22;39836;52.754;6.866;2023-02-21T15:33:15;9.60;83.20
53926;DHT22;39836;52.754;6.866;2023-02-21T15:35:47;9.50;83.20
53926;DHT22;39836;52.754;6.866;2023-02-21T15:40:45;9.50;83.40
53926;DHT22;39836;52.754;6.866;2023-02-21T15:43:35;9.50;83.40
53926;DHT22;39836;52.754;6.866;2023-02-21T15:46:03;9.50;83.40
53926;DHT22;39836;52.754;6.866;2023-02-21T15:48:31;9.50;83.50
53926;DHT22;39836;52.754;6.866;2023-02-21T15:51:02;9.40;83.50
53926;DHT22;39836;52.754;6.866;2023-02-21T15:53:28;9.40;83.60
53926;DHT22;39836;52.754;6.866;2023-02-21T15:56:18;9.40;83.60
53926;DHT22;39836;52.754;6.866;2023-02-21T15:59:06;9.40;83.70
53926;DHT22;39836;52.754;6.866;2023-02-21T16:01:32;9.40;83.70
53926;DHT22;39836;52.754;6.866;2023-02-21T16:04:16;9.40;83.80
53926;DHT22;39836;52.754;6.866;2023-02-21T16:06:55;9.40;83.80
53926;DHT22;39836;52.754;6.866;2023-02-21T16:09:33;9.30;83.80
53926;DHT22;39836;52.754;6.866;2023-02-21T16:12:25;9.30;83.80
53926;DHT22;39836;52.754;6.866;2023-02-21T16:17:44;9.30;83.80
53926;DHT22;39836;52.754;6.866;2023-02-21T16:22:40;9.20;83.90
53926;DHT22;39836;52.754;6.866;2023-02-21T16:27:42;9.20;84.00
53926;DHT22;39836;52.754;6.866;2023-02-21T16:30:29;9.20;84.00
53926;DHT22;39836;52.754;6.866;2023-02-21T16:33:03;9.20;84.00
53926;DHT22;39836;52.754;6.866;2023-02-21T16:35:29;9.20;84.00
53926;DHT22;39836;52.754;6.866;2023-02-21T16:37:57;9.10;84.00
53926;DHT22;39836;52.754;6.866;2023-02-21T16:40:32;9.10;84.00
53926;DHT22;39836;52.754;6.866;2023-02-21T16:42:59;9.10;84.00
53926;DHT22;39836;52.754;6.866;2023-02-21T16:45:27;9.10;84.00
53926;DHT22;39836;52.754;6.866;2023-02-21T16:48:00;9.10;84.00
53926;DHT22;39836;52.754;6.866;2023-02-21T16:50:31;9.10;84.10
53926;DHT22;39836;52.754;6.866;2023-02-21T16:52:58;9.10;84.10
53926;DHT22;39836;52.754;6.866;2023-02-21T16:55:24;9.10;84.10
53926;DHT22;39836;52.754;6.866;2023-02-21T16:57:54;9.10;84.10
53926;DHT22;39836;52.754;6.866;2023-02-21T17:00:20;9.10;84.10
53926;DHT22;39836;52.754;6.866;2023-02-21T17:02:51;9.10;84.10
53926;DHT22;39836;52.754;6.866;2023-02-21T17:05:18;9.10;84.10
53926;DHT22;39836;52.754;6.866;2023-02-21T17:07:49;9.10;84.20
53926;DHT22;39836;52.754;6.866;2023-02-21T17:10:16;9.00;84.10
53926;DHT22;39836;52.754;6.866;2023-02-21T17:12:42;9.10;84.20
53926;DHT22;39836;52.754;6.866;2023-02-21T17:15:08;9.10;84.20
53926;DHT22;39836;52.754;6.866;2023-02-21T17:17:35;9.00;84.20
53926;DHT22;39836;52.754;6.866;2023-02-21T17:20:03;9.00;84.20
53926;DHT22;39836;52.754;6.866;2023-02-21T17:22:29;9.00;84.20
53926;DHT22;39836;52.754;6.866;2023-02-21T17:24:55;9.00;84.20
53926;DHT22;39836;52.754;6.866;2023-02-21T17:27:21;9.00;84.20
53926;DHT22;39836;52.754;6.866;2023-02-21T17:29:47;9.00;84.20
53926;DHT22;39836;52.754;6.866;2023-02-21T17:32:13;9.00;84.20
53926;DHT22;39836;52.754;6.866;2023-02-21T17:34:39;9.00;84.20
53926;DHT22;39836;52.754;6.866;2023-02-21T17:37:04;9.00;84.20
53926;DHT22;39836;52.754;6.866;2023-02-21T17:39:30;9.00;84.20
53926;DHT22;39836;52.754;6.866;2023-02-21T17:41:56;9.00;84.30
53926;DHT22;39836;52.754;6.866;2023-02-21T17:44:22;9.00;84.30
53926;DHT22;39836;52.754;6.866;2023-02-21T17:46:53;9.00;84.30
53926;DHT22;39836;52.754;6.866;2023-02-21T17:49:22;9.00;84.30
53926;DHT22;39836;52.754;6.866;2023-02-21T17:51:48;8.90;84.30
53926;DHT22;39836;52.754;6.866;2023-02-21T17:54:15;8.90;84.30
53926;DHT22;39836;52.754;6.866;2023-02-21T17:56:41;8.90;84.30
53926;DHT22;39836;52.754;6.866;2023-02-21T17:59:07;8.90;84.30
53926;DHT22;39836;52.754;6.866;2023-02-21T18:01:32;8.90;84.30
53926;DHT22;39836;52.754;6.866;2023-02-21T18:03:58;8.90;84.30
53926;DHT22;39836;52.754;6.866;2023-02-21T18:06:27;8.90;84.30
53926;DHT22;39836;52.754;6.866;2023-02-21T18:08:54;8.90;84.30
53926;DHT22;39836;52.754;6.866;2023-02-21T18:11:22;8.90;84.30
53926;DHT22;39836;52.754;6.866;2023-02-21T18:13:49;8.90;84.30
53926;DHT22;39836;52.754;6.866;2023-02-21T18:16:14;8.90;84.30
53926;DHT22;39836;52.754;6.866;2023-02-21T18:18:40;8.90;84.30
53926;DHT22;39836;52.754;6.866;2023-02-21T18:21:06;8.90;84.30
53926;DHT22;39836;52.754;6.866;2023-02-21T18:23:33;8.90;84.30
53926;DHT22;39836;52.754;6.866;2023-02-21T18:26:00;8.90;84.30
53926;DHT22;39836;52.754;6.866;2023-02-21T18:28:26;8.90;84.30
53926;DHT22;39836;52.754;6.866;2023-02-21T18:30:52;8.90;84.30
53926;DHT22;39836;52.754;6.866;2023-02-21T18:33:20;8.90;84.30
53926;DHT22;39836;52.754;6.866;2023-02-21T18:35:46;8.90;84.30
53926;DHT22;39836;52.754;6.866;2023-02-21T18:38:12;8.90;84.30
53926;DHT22;39836;52.754;6.866;2023-02-21T18:40:40;8.90;84.30
53926;DHT22;39836;52.754;6.866;2023-02-21T18:43:27;8.90;84.30
53926;DHT22;39836;52.754;6.866;2023-02-21T18:45:54;8.80;84.30
53926;DHT22;39836;52.754;6.866;2023-02-21T18:48:21;8.80;84.30
53926;DHT22;39836;52.754;6.866;2023-02-21T18:50:47;8.80;84.30